Gallina — 9VGC4 — position and weather

sailwx.info

Track history (hours):
 
Tides and Currents Weather Stations Pressure Air Temp Water Temp Dewpoint Dewpoint Depression Visibility Wind Speed Wind Dir Waves Ship Positions

Gallina

Last reported at 2014-Jul-23 10:04 UTC. Time now 2014-Jul-23 16:23 UTC.
Position N 35°00' W 007°41'.

Type: Ship (hazmat cat A). MMSI: 564646000.

Date/timePositionNaut miles runAvg speedWind from/ knotsBaromVisibWave heightAir tempDewpointWater temp
2014-Jul-23 10:04N 35°00' W 007°41'712.9
2014-Jul-23 09:33N 35°05' W 007°35'1312.6
2014-Jul-23 08:33N 35°14' W 007°24'1312.5
2014-Jul-23 07:33N 35°23' W 007°14'1312.6
2014-Jul-23 06:33N 35°32' W 007°03'1212.5
2014-Jul-23 05:33N 35°41' W 006°52'1813.2
2014-Jul-23 04:10N 35°51' W 006°34'60 5.1
2014-Jul-22 16:27N 36°08' W 005°23'2 0.1
2014-Jul-21 15:32N 36°09' W 005°25'0 0.0
2014-Jul-21 14:07N 36°09' W 005°25'  
2014-Jul-17 05:32N 36°19' W 001°60'5016.1
2014-Jul-17 02:23N 36°29' W 000°59'2915.0
2014-Jul-17 00:28N 36°37' W 000°24'1314.8
2014-Jul-16 23:33N 36°41' W 000°08'2215.3
2014-Jul-16 22:07N 36°47' E 000°18'814.7
2014-Jul-16 21:33N 36°50' E 000°28'1514.9
2014-Jul-16 20:33N 36°53' E 000°46'1414.4
2014-Jul-16 19:33N 36°58' E 001°03'2014.3
2014-Jul-16 18:08N 37°03' E 001°28'914.6
2014-Jul-16 17:29N 37°06' E 001°39'1414.6
2014-Jul-16 16:33N 37°10' E 001°56'1615.3
2014-Jul-16 15:29N 37°15' E 002°15'1617.2
2014-Jul-16 14:33N 37°19' E 002°35'1817.3
2014-Jul-16 13:32N 37°24' E 002°56'1817.2
2014-Jul-16 12:28N 37°28' E 003°18'43216.0
2014-Jul-15 09:33N 36°55' E 012°19'1615.5
2014-Jul-15 08:33N 36°47' E 012°36'  
Track history (hours):
 
Tides and Currents Weather Stations Pressure Air Temp Water Temp Dewpoint Dewpoint Depression Visibility Wind Speed Wind Dir Waves Ship Positions

Gallina

Last reported at 2014-Jul-23 10:04 UTC. Time now 2014-Jul-23 16:23 UTC.
Position N 35°00' W 007°41'.

Type: Ship (hazmat cat A). MMSI: 564646000.

Date/timePositionNaut miles runAvg speedWind from/ knotsBaromVisibWave heightAir tempDewpointWater temp
2014-Jul-23 10:04N 35°00' W 007°41'712.9
2014-Jul-23 09:33N 35°05' W 007°35'1312.6
2014-Jul-23 08:33N 35°14' W 007°24'1312.5
2014-Jul-23 07:33N 35°23' W 007°14'1312.6
2014-Jul-23 06:33N 35°32' W 007°03'1212.5
2014-Jul-23 05:33N 35°41' W 006°52'1813.2
2014-Jul-23 04:10N 35°51' W 006°34'60 5.1
2014-Jul-22 16:27N 36°08' W 005°23'2 0.1
2014-Jul-21 15:32N 36°09' W 005°25'0 0.0
2014-Jul-21 14:07N 36°09' W 005°25'  
2014-Jul-17 05:32N 36°19' W 001°60'5016.1
2014-Jul-17 02:23N 36°29' W 000°59'2915.0
2014-Jul-17 00:28N 36°37' W 000°24'1314.8
2014-Jul-16 23:33N 36°41' W 000°08'2215.3
2014-Jul-16 22:07N 36°47' E 000°18'814.7
2014-Jul-16 21:33N 36°50' E 000°28'1514.9
2014-Jul-16 20:33N 36°53' E 000°46'1414.4
2014-Jul-16 19:33N 36°58' E 001°03'2014.3
2014-Jul-16 18:08N 37°03' E 001°28'914.6
2014-Jul-16 17:29N 37°06' E 001°39'1414.6
2014-Jul-16 16:33N 37°10' E 001°56'1615.3
2014-Jul-16 15:29N 37°15' E 002°15'1617.2
2014-Jul-16 14:33N 37°19' E 002°35'1817.3
2014-Jul-16 13:32N 37°24' E 002°56'1817.2
2014-Jul-16 12:28N 37°28' E 003°18'43216.0
2014-Jul-15 09:33N 36°55' E 012°19'1615.5
2014-Jul-15 08:33N 36°47' E 012°36'  

Dump ship's entire track history